createdAt,value
2018-11-14T00:03:52.919Z,19.50
2018-11-14T00:08:46.406Z,19.20
2018-11-14T00:13:39.785Z,20.72
2018-11-14T00:18:33.284Z,19.07
2018-11-14T00:23:26.718Z,19.62
2018-11-14T00:28:20.178Z,16.12
2018-11-14T00:33:14.089Z,18.40
2018-11-14T00:38:07.181Z,16.87
2018-11-14T00:43:02.716Z,17.45
2018-11-14T00:47:56.200Z,17.23
2018-11-14T00:52:49.612Z,19.62
2018-11-14T00:57:44.247Z,20.52
2018-11-14T01:02:37.982Z,18.92
2018-11-14T01:07:31.556Z,15.88
2018-11-14T01:12:25.024Z,20.00
2018-11-14T01:17:18.486Z,18.60
2018-11-14T01:22:11.883Z,21.30
2018-11-14T01:27:05.474Z,18.02
2018-11-14T01:31:58.851Z,20.02
2018-11-14T01:36:52.661Z,17.87
2018-11-14T01:41:46.172Z,21.12
2018-11-14T01:46:39.570Z,21.10
2018-11-14T01:51:33.075Z,24.55
2018-11-14T01:56:26.942Z,21.25
2018-11-14T02:01:20.361Z,19.62
2018-11-14T02:06:13.809Z,17.52
2018-11-14T02:11:07.334Z,21.37
2018-11-14T02:16:00.879Z,19.42
2018-11-14T02:20:54.260Z,31.15
2018-11-14T02:25:47.749Z,23.52
2018-11-14T02:30:41.190Z,21.33
2018-11-14T02:35:34.637Z,19.42
2018-11-14T02:40:28.196Z,20.08
2018-11-14T02:45:21.651Z,20.02
2018-11-14T02:50:16.312Z,20.17
2018-11-14T02:55:11.191Z,32.88
2018-11-14T03:00:05.329Z,21.65
2018-11-14T03:04:58.830Z,19.70
2018-11-14T03:09:52.292Z,22.15
2018-11-14T03:14:45.744Z,17.95
2018-11-14T03:19:39.069Z,20.97
2018-11-14T03:24:32.745Z,23.60
2018-11-14T03:29:26.160Z,15.35
2018-11-14T03:34:19.535Z,15.23
2018-11-14T03:39:13.027Z,14.95
2018-11-14T03:44:06.927Z,18.15
2018-11-14T03:49:00.286Z,13.18
2018-11-14T03:53:53.752Z,20.65
2018-11-14T03:58:47.308Z,15.85
2018-11-14T04:03:40.712Z,19.00
2018-11-14T04:08:34.112Z,16.17
2018-11-14T04:13:27.647Z,14.53
2018-11-14T04:18:21.022Z,13.05
2018-11-14T04:23:14.385Z,16.80
2018-11-14T04:28:07.804Z,16.12
2018-11-14T04:33:01.416Z,17.20
2018-11-14T04:37:54.890Z,18.20
2018-11-14T04:42:48.362Z,15.40
2018-11-14T04:47:42.148Z,14.45
2018-11-14T04:52:35.580Z,16.60
2018-11-14T04:57:29.063Z,22.32
2018-11-14T05:02:22.400Z,23.62
2018-11-14T05:07:16.066Z,18.02
2018-11-14T05:12:09.486Z,20.72
2018-11-14T05:17:03.032Z,21.35
2018-11-14T05:21:56.584Z,17.23
2018-11-14T05:26:49.987Z,16.73
2018-11-14T05:31:43.493Z,17.45
2018-11-14T05:36:36.936Z,21.95
2018-11-14T05:41:30.481Z,22.32
2018-11-14T05:46:23.911Z,23.45
2018-11-14T05:51:17.305Z,21.75
2018-11-14T05:56:10.827Z,26.23
2018-11-14T06:01:04.673Z,25.62
2018-11-14T06:05:58.093Z,27.55
2018-11-14T06:10:51.592Z,25.08
2018-11-14T06:15:45.230Z,20.45
2018-11-14T06:20:38.677Z,20.37
2018-11-14T06:25:34.481Z,17.32
2018-11-14T06:30:28.149Z,19.90
2018-11-14T06:35:21.901Z,20.10
2018-11-14T06:40:15.357Z,22.35
2018-11-14T06:45:11.775Z,17.67
2018-11-14T06:50:06.592Z,26.65
2018-11-14T06:55:00.124Z,19.12
2018-11-14T06:59:53.723Z,13.32
2018-11-14T07:04:51.787Z,18.17
2018-11-14T07:09:45.322Z,15.58
2018-11-14T07:14:38.826Z,20.12
2018-11-14T07:19:32.383Z,20.55
2018-11-14T07:24:25.930Z,22.82
2018-11-14T07:29:19.329Z,26.57
2018-11-14T07:34:12.698Z,23.10
2018-11-14T07:39:09.353Z,17.12
2018-11-14T07:44:06.528Z,19.73
2018-11-14T07:49:00.223Z,17.87
2018-11-14T07:53:53.699Z,17.77
2018-11-14T07:58:47.369Z,17.27
2018-11-14T08:03:40.915Z,18.75
2018-11-14T08:08:34.348Z,13.93
2018-11-14T08:13:29.049Z,14.87
2018-11-14T08:18:22.839Z,11.63
2018-11-14T08:23:16.441Z,12.30
2018-11-14T08:28:09.996Z,12.98
2018-11-14T08:33:03.713Z,12.30
2018-11-14T08:37:57.205Z,13.10
2018-11-14T08:42:50.736Z,11.88
2018-11-14T08:47:44.228Z,13.35
2018-11-14T08:52:37.897Z,11.95
2018-11-14T08:57:31.314Z,14.43
2018-11-14T09:02:24.790Z,19.30
2018-11-14T09:07:18.335Z,11.55
2018-11-14T09:12:12.049Z,17.50
2018-11-14T09:17:06.007Z,13.45
2018-11-14T09:22:00.113Z,15.25
2018-11-14T09:26:53.617Z,13.62
2018-11-14T09:31:47.207Z,14.28
2018-11-14T09:36:40.601Z,16.67
2018-11-14T09:41:34.477Z,13.98
2018-11-14T09:46:27.991Z,23.47
2018-11-14T09:51:21.450Z,20.55
2018-11-14T09:56:15.255Z,17.92
2018-11-14T10:01:08.700Z,16.32
2018-11-14T10:06:02.193Z,13.93
2018-11-14T10:10:55.851Z,12.13
2018-11-14T10:15:49.337Z,15.30
2018-11-14T10:20:42.762Z,16.73
2018-11-14T10:25:36.196Z,16.37
2018-11-14T10:30:29.897Z,16.42
2018-11-14T10:35:23.408Z,12.65
2018-11-14T10:40:22.021Z,15.70
2018-11-14T10:45:17.128Z,14.73
2018-11-14T10:50:13.508Z,14.15
2018-11-14T10:55:07.860Z,12.07
2018-11-14T11:00:01.465Z,16.05
2018-11-14T11:05:00.352Z,13.58
2018-11-14T11:09:59.338Z,13.80
2018-11-14T11:14:58.299Z,16.25
2018-11-14T11:19:51.894Z,18.32
2018-11-14T11:24:45.488Z,14.20
2018-11-14T11:29:38.947Z,14.25
2018-11-14T11:34:32.447Z,12.63
2018-11-14T11:39:26.148Z,15.72
2018-11-14T11:44:19.819Z,20.62
2018-11-14T11:49:13.416Z,16.60
2018-11-14T11:54:07.443Z,17.95
2018-11-14T11:59:01.094Z,15.40
2018-11-14T12:03:54.655Z,14.23
2018-11-14T12:08:48.202Z,12.93
2018-11-14T12:13:41.817Z,18.73
2018-11-14T12:18:35.333Z,17.27
2018-11-14T12:23:29.118Z,16.00
2018-11-14T12:28:22.746Z,24.07
2018-11-14T12:33:16.414Z,14.93
2018-11-14T12:38:10.082Z,19.35
2018-11-14T12:43:03.645Z,17.17
2018-11-14T12:47:57.040Z,18.48
2018-11-14T12:52:50.663Z,20.85
2018-11-14T12:57:44.108Z,18.30
2018-11-14T13:02:40.069Z,15.40
2018-11-14T13:07:33.587Z,17.57
2018-11-14T13:12:27.072Z,21.00
2018-11-14T13:17:20.756Z,20.95
2018-11-14T13:22:15.738Z,23.42
2018-11-14T13:27:09.272Z,29.02
2018-11-14T13:32:02.760Z,22.07
2018-11-14T13:36:56.792Z,17.30
2018-11-14T13:41:50.296Z,34.30
2018-11-14T13:46:43.908Z,23.45
2018-11-14T13:51:37.834Z,27.35
2018-11-14T13:56:31.568Z,25.23
2018-11-14T14:01:25.295Z,31.70
2018-11-14T14:06:18.785Z,26.52
2018-11-14T14:11:12.382Z,82.95
2018-11-14T14:16:06.108Z,30.25
2018-11-14T14:20:59.701Z,35.75
2018-11-14T14:25:53.308Z,37.65
2018-11-14T14:30:46.988Z,56.73
2018-11-14T14:35:40.600Z,43.65
2018-11-14T14:40:34.288Z,63.25
2018-11-14T14:45:27.867Z,50.52
2018-11-14T14:50:21.439Z,29.45
2018-11-14T14:55:20.402Z,32.08
2018-11-14T15:00:18.637Z,34.20
2018-11-14T15:05:13.029Z,38.85
2018-11-14T15:10:08.907Z,51.55
2018-11-14T15:15:02.520Z,40.30
2018-11-14T15:19:56.177Z,32.28
2018-11-14T15:24:49.681Z,48.42
2018-11-14T15:29:43.158Z,42.00
2018-11-14T15:34:36.777Z,41.60
2018-11-14T15:39:30.356Z,34.92
2018-11-14T15:44:23.811Z,36.17
2018-11-14T15:49:17.304Z,27.02
2018-11-14T15:54:10.853Z,26.90
2018-11-14T15:59:04.589Z,30.77
2018-11-14T16:03:58.411Z,35.63
2018-11-14T16:08:51.966Z,40.90
2018-11-14T16:13:50.805Z,50.52
2018-11-14T16:18:44.337Z,51.88
2018-11-14T16:23:37.853Z,63.38
2018-11-14T16:28:31.624Z,89.10
2018-11-14T16:33:26.326Z,84.22
2018-11-14T16:38:19.855Z,79.30
2018-11-14T16:43:14.462Z,86.70
2018-11-14T16:48:07.998Z,76.65
2018-11-14T16:53:01.426Z,41.30
2018-11-14T16:57:55.720Z,43.15
2018-11-14T17:02:49.435Z,41.18
2018-11-14T17:07:43.076Z,41.10
2018-11-14T17:12:36.519Z,38.88
2018-11-14T17:17:29.874Z,48.45
2018-11-14T17:22:23.932Z,56.42
2018-11-14T17:27:17.634Z,38.98
2018-11-14T17:32:11.504Z,42.13
2018-11-14T17:37:05.460Z,64.65
2018-11-14T17:42:00.614Z,64.03
2018-11-14T17:46:54.343Z,55.70
2018-11-14T17:51:48.057Z,47.93
2018-11-14T17:56:41.844Z,67.42
2018-11-14T18:01:35.555Z,78.70
2018-11-14T18:06:29.335Z,70.92
2018-11-14T18:11:22.825Z,103.00
2018-11-14T18:16:16.948Z,130.93
2018-11-14T18:21:10.551Z,89.28
2018-11-14T18:26:04.151Z,129.65
2018-11-14T18:30:57.872Z,109.63
2018-11-14T18:35:51.500Z,89.97
2018-11-14T18:40:45.380Z,94.95
2018-11-14T18:45:39.332Z,119.20
2018-11-14T18:50:34.551Z,90.60
2018-11-14T18:55:29.577Z,124.67
2018-11-14T19:00:31.207Z,128.05
2018-11-14T19:05:24.877Z,106.40
2018-11-14T19:10:19.946Z,111.08
2018-11-14T19:15:16.340Z,31.17
2018-11-14T19:20:12.635Z,33.10
2018-11-14T19:25:07.929Z,39.95
2018-11-14T19:30:01.452Z,40.40
2018-11-14T19:34:54.994Z,77.05
2018-11-14T19:39:48.510Z,96.32
2018-11-14T19:44:41.970Z,83.12
2018-11-14T19:49:35.455Z,63.80
2018-11-14T19:54:29.163Z,80.32
2018-11-14T19:59:22.848Z,84.35
2018-11-14T20:04:16.534Z,52.13
2018-11-14T20:09:10.878Z,32.33
2018-11-14T20:14:05.501Z,32.45
2018-11-14T20:18:59.394Z,29.65
2018-11-14T20:23:53.162Z,35.50
2018-11-14T20:28:46.799Z,31.37
2018-11-14T20:33:40.417Z,36.17
2018-11-14T20:38:34.137Z,34.60
2018-11-14T20:43:27.656Z,34.65
2018-11-14T20:48:21.050Z,33.05
2018-11-14T20:53:14.709Z,37.73
2018-11-14T20:58:08.295Z,34.27
2018-11-14T21:03:01.971Z,34.40
2018-11-14T21:07:55.837Z,32.67
2018-11-14T21:12:50.103Z,33.88
2018-11-14T21:17:44.069Z,31.70
2018-11-14T21:22:37.795Z,32.42
2018-11-14T21:27:31.339Z,32.33
2018-11-14T21:32:24.967Z,32.88
2018-11-14T21:37:18.582Z,28.87
2018-11-14T21:42:12.120Z,24.82
2018-11-14T21:47:05.615Z,21.52
2018-11-14T21:51:59.645Z,18.67
2018-11-14T21:56:53.163Z,16.25
2018-11-14T22:01:47.614Z,32.63
2018-11-14T22:06:41.161Z,14.23
2018-11-14T22:11:34.631Z,11.45
2018-11-14T22:16:28.177Z,21.85
2018-11-14T22:21:21.880Z,11.05
2018-11-14T22:26:15.500Z,7.90
2018-11-14T22:31:09.136Z,5.10
2018-11-14T22:36:02.774Z,7.70
2018-11-14T22:40:56.337Z,4.80
2018-11-14T22:45:49.844Z,9.00
2018-11-14T22:50:44.271Z,5.97
2018-11-14T22:55:37.753Z,13.38
2018-11-14T23:00:32.992Z,9.28
2018-11-14T23:05:26.700Z,2.45
2018-11-14T23:10:21.240Z,5.25
2018-11-14T23:15:14.678Z,3.00
2018-11-14T23:20:11.200Z,2.92
2018-11-14T23:25:05.147Z,5.83
2018-11-14T23:29:58.671Z,3.70
2018-11-14T23:34:57.572Z,4.35
2018-11-14T23:39:51.055Z,3.47
2018-11-14T23:44:44.529Z,3.25
2018-11-14T23:49:38.988Z,3.83
2018-11-14T23:54:32.434Z,2.62
2018-11-14T23:59:26.110Z,3.25
